sensor_id;sensor_type;location;lat;lon;timestamp;pressure;altitude;pressure_sealevel;temperature;humidity
40205;BME280;26963;42.666;23.366;2023-02-21T00:00:11;95295.06;;;7.92;45.50
40205;BME280;26963;42.666;23.366;2023-02-21T00:02:55;95345.44;;;8.25;45.37
40205;BME280;26963;42.666;23.366;2023-02-21T00:05:39;95320.38;;;8.05;45.78
40205;BME280;26963;42.666;23.366;2023-02-21T00:08:23;95348.13;;;8.20;45.51
40205;BME280;26963;42.666;23.366;2023-02-21T00:11:08;95311.59;;;7.99;45.80
40205;BME280;26963;42.666;23.366;2023-02-21T00:13:52;95343.03;;;8.13;45.64
40205;BME280;26963;42.666;23.366;2023-02-21T00:16:36;95327.84;;;8.13;45.72
40205;BME280;26963;42.666;23.366;2023-02-21T00:19:19;95265.22;;;7.70;45.84
40205;BME280;26963;42.666;23.366;2023-02-21T00:22:23;95337.19;;;8.06;45.88
40205;BME280;26963;42.666;23.366;2023-02-21T00:25:07;95334.25;;;7.97;45.78
40205;BME280;26963;42.666;23.366;2023-02-21T00:27:51;95318.78;;;7.89;45.92
40205;BME280;26963;42.666;23.366;2023-02-21T00:30:35;95339.03;;;8.10;46.15
40205;BME280;26963;42.666;23.366;2023-02-21T00:33:19;95311.31;;;7.96;45.90
40205;BME280;26963;42.666;23.366;2023-02-21T00:36:04;95331.31;;;8.04;46.01
40205;BME280;26963;42.666;23.366;2023-02-21T00:38:48;95339.31;;;8.04;46.17
40205;BME280;26963;42.666;23.366;2023-02-21T00:41:32;95298.78;;;7.81;45.79
40205;BME280;26963;42.666;23.366;2023-02-21T00:44:16;95271.09;;;7.61;46.08
40205;BME280;26963;42.666;23.366;2023-02-21T00:47:00;95213.50;;;7.14;46.73
40205;BME280;26963;42.666;23.366;2023-02-21T00:49:44;95319.53;;;7.74;45.10
40205;BME280;26963;42.666;23.366;2023-02-21T00:52:28;95322.72;;;7.55;46.91
40205;BME280;26963;42.666;23.366;2023-02-21T00:55:13;95314.66;;;7.34;48.78
40205;BME280;26963;42.666;23.366;2023-02-21T00:57:57;95302.06;;;7.04;48.70
40205;BME280;26963;42.666;23.366;2023-02-21T01:00:41;95294.88;;;6.99;48.28
40205;BME280;26963;42.666;23.366;2023-02-21T01:03:24;95295.94;;;7.04;48.52
40205;BME280;26963;42.666;23.366;2023-02-21T01:06:10;95282.91;;;7.02;48.38
40205;BME280;26963;42.666;23.366;2023-02-21T01:08:54;95230.84;;;6.58;48.50
40205;BME280;26963;42.666;23.366;2023-02-21T01:11:39;95267.25;;;7.11;48.37
40205;BME280;26963;42.666;23.366;2023-02-21T01:14:22;95273.66;;;7.20;47.82
40205;BME280;26963;42.666;23.366;2023-02-21T01:17:06;95255.47;;;7.01;48.44
40205;BME280;26963;42.666;23.366;2023-02-21T01:19:51;95262.16;;;7.09;48.56
40205;BME280;26963;42.666;23.366;2023-02-21T01:22:35;95273.09;;;7.13;48.26
40205;BME280;26963;42.666;23.366;2023-02-21T01:25:19;95238.94;;;6.84;48.48
40205;BME280;26963;42.666;23.366;2023-02-21T01:28:03;95266.97;;;7.12;48.53
40205;BME280;26963;42.666;23.366;2023-02-21T01:30:48;95194.78;;;6.78;48.01
40205;BME280;26963;42.666;23.366;2023-02-21T01:33:39;95269.34;;;7.04;49.02
40205;BME280;26963;42.666;23.366;2023-02-21T01:36:24;95256.53;;;6.95;48.82
40205;BME280;26963;42.666;23.366;2023-02-21T01:39:09;95270.91;;;6.89;49.57
40205;BME280;26963;42.666;23.366;2023-02-21T01:41:53;95260.78;;;6.91;49.03
40205;BME280;26963;42.666;23.366;2023-02-21T01:44:42;95269.88;;;7.00;48.93
40205;BME280;26963;42.666;23.366;2023-02-21T01:47:27;95253.66;;;7.07;48.51
40205;BME280;26963;42.666;23.366;2023-02-21T01:50:24;95256.88;;;7.14;48.18
40205;BME280;26963;42.666;23.366;2023-02-21T01:53:13;95232.06;;;6.93;48.19
40205;BME280;26963;42.666;23.366;2023-02-21T01:55:59;95184.59;;;6.59;48.58
40205;BME280;26963;42.666;23.366;2023-02-21T01:58:45;95225.41;;;6.85;48.75
40205;BME280;26963;42.666;23.366;2023-02-21T02:01:41;95245.94;;;7.06;48.67
40205;BME280;26963;42.666;23.366;2023-02-21T02:04:29;95183.06;;;6.79;48.62
40205;BME280;26963;42.666;23.366;2023-02-21T02:07:14;95218.25;;;7.12;48.22
40205;BME280;26963;42.666;23.366;2023-02-21T02:09:58;95225.72;;;7.10;48.56
40205;BME280;26963;42.666;23.366;2023-02-21T02:15:37;95159.13;;;6.74;48.31
40205;BME280;26963;42.666;23.366;2023-02-21T02:28:47;95196.94;;;6.91;49.02
40205;BME280;26963;42.666;23.366;2023-02-21T02:36:38;95205.50;;;7.04;48.51
40205;BME280;26963;42.666;23.366;2023-02-21T02:39:17;95197.22;;;6.95;48.65
40205;BME280;26963;42.666;23.366;2023-02-21T02:44:39;95142.84;;;6.60;48.65
40205;BME280;26963;42.666;23.366;2023-02-21T02:47:09;95150.09;;;6.80;48.68
40205;BME280;26963;42.666;23.366;2023-02-21T02:49:40;95195.41;;;7.21;48.33
40205;BME280;26963;42.666;23.366;2023-02-21T02:52:08;95193.28;;;7.23;48.13
40205;BME280;26963;42.666;23.366;2023-02-21T02:54:34;95204.47;;;7.41;47.53
40205;BME280;26963;42.666;23.366;2023-02-21T02:57:02;95025.53;;;6.15;47.37
40205;BME280;26963;42.666;23.366;2023-02-21T02:59:30;95197.81;;;7.54;47.19
40205;BME280;26963;42.666;23.366;2023-02-21T03:02:14;95199.19;;;7.61;47.39
40205;BME280;26963;42.666;23.366;2023-02-21T03:04:58;95204.50;;;7.66;47.02
40205;BME280;26963;42.666;23.366;2023-02-21T03:15:45;95210.88;;;7.71;46.62
40205;BME280;26963;42.666;23.366;2023-02-21T03:21:11;95182.13;;;7.57;46.99
40205;BME280;26963;42.666;23.366;2023-02-21T03:23:39;95138.47;;;7.22;47.24
40205;BME280;26963;42.666;23.366;2023-02-21T03:26:09;95138.72;;;7.26;46.87
40205;BME280;26963;42.666;23.366;2023-02-21T03:28:36;95119.84;;;7.17;46.83
40205;BME280;26963;42.666;23.366;2023-02-21T03:31:04;95197.56;;;7.60;46.70
40205;BME280;26963;42.666;23.366;2023-02-21T03:33:31;95182.38;;;7.66;46.90
40205;BME280;26963;42.666;23.366;2023-02-21T03:35:59;95180.28;;;7.63;46.73
40205;BME280;26963;42.666;23.366;2023-02-21T03:38:28;95184.53;;;7.69;46.70
40205;BME280;26963;42.666;23.366;2023-02-21T03:40:54;95163.47;;;7.57;46.79
40205;BME280;26963;42.666;23.366;2023-02-21T03:43:19;95126.22;;;7.31;46.80
40205;BME280;26963;42.666;23.366;2023-02-21T03:45:45;95170.94;;;7.55;46.62
40205;BME280;26963;42.666;23.366;2023-02-21T03:48:10;95172.56;;;7.61;46.78
40205;BME280;26963;42.666;23.366;2023-02-21T03:50:36;95136.31;;;7.34;46.79
40205;BME280;26963;42.666;23.366;2023-02-21T03:53:02;95202.91;;;7.71;46.45
40205;BME280;26963;42.666;23.366;2023-02-21T03:55:28;95175.19;;;7.51;46.47
40205;BME280;26963;42.666;23.366;2023-02-21T03:57:54;95173.63;;;7.45;46.83
40205;BME280;26963;42.666;23.366;2023-02-21T04:00:19;95206.91;;;7.68;47.07
40205;BME280;26963;42.666;23.366;2023-02-21T04:02:44;95200.50;;;7.69;47.10
40205;BME280;26963;42.666;23.366;2023-02-21T04:05:10;95195.19;;;7.64;46.98
40205;BME280;26963;42.666;23.366;2023-02-21T04:07:36;95128.34;;;7.19;47.26
40205;BME280;26963;42.666;23.366;2023-02-21T04:10:02;95202.91;;;7.65;46.86
40205;BME280;26963;42.666;23.366;2023-02-21T04:12:27;95215.16;;;7.61;47.09
40205;BME280;26963;42.666;23.366;2023-02-21T04:14:53;95167.22;;;7.30;46.82
40205;BME280;26963;42.666;23.366;2023-02-21T04:17:21;95209.56;;;7.58;47.12
40205;BME280;26963;42.666;23.366;2023-02-21T04:19:46;95194.91;;;7.55;47.14
40205;BME280;26963;42.666;23.366;2023-02-21T04:22:12;95224.22;;;7.60;46.57
40205;BME280;26963;42.666;23.366;2023-02-21T04:24:37;95211.94;;;7.59;47.29
40205;BME280;26963;42.666;23.366;2023-02-21T04:27:03;95218.34;;;7.53;46.82
40205;BME280;26963;42.666;23.366;2023-02-21T04:29:28;95167.19;;;7.15;46.83
40205;BME280;26963;42.666;23.366;2023-02-21T04:31:54;95113.13;;;6.83;46.88
40205;BME280;26963;42.666;23.366;2023-02-21T04:34:20;95231.13;;;7.61;46.57
40205;BME280;26963;42.666;23.366;2023-02-21T04:36:46;95237.25;;;7.57;46.77
40205;BME280;26963;42.666;23.366;2023-02-21T04:39:11;95232.19;;;7.55;46.64
40205;BME280;26963;42.666;23.366;2023-02-21T04:41:37;95230.03;;;7.57;46.81
40205;BME280;26963;42.666;23.366;2023-02-21T04:44:03;95240.47;;;7.64;46.51
40205;BME280;26963;42.666;23.366;2023-02-21T04:46:30;95214.63;;;7.44;46.60
40205;BME280;26963;42.666;23.366;2023-02-21T04:48:56;95214.06;;;7.52;47.14
40205;BME280;26963;42.666;23.366;2023-02-21T04:51:23;95223.94;;;7.57;46.68
40205;BME280;26963;42.666;23.366;2023-02-21T04:53:50;95203.41;;;7.47;46.54
40205;BME280;26963;42.666;23.366;2023-02-21T04:56:21;95207.69;;;7.32;47.14
40205;BME280;26963;42.666;23.366;2023-02-21T04:58:47;95221.00;;;7.48;46.98
40205;BME280;26963;42.666;23.366;2023-02-21T05:01:15;95201.81;;;7.35;47.20
40205;BME280;26963;42.666;23.366;2023-02-21T05:03:41;95179.72;;;7.25;47.31
40205;BME280;26963;42.666;23.366;2023-02-21T05:06:07;95192.50;;;7.28;47.52
40205;BME280;26963;42.666;23.366;2023-02-21T05:08:32;95171.47;;;7.11;47.71
40205;BME280;26963;42.666;23.366;2023-02-21T05:10:58;95188.50;;;7.20;47.54
40205;BME280;26963;42.666;23.366;2023-02-21T05:13:23;95141.06;;;6.81;47.96
40205;BME280;26963;42.666;23.366;2023-02-21T05:15:49;95189.03;;;7.27;47.80
40205;BME280;26963;42.666;23.366;2023-02-21T05:18:15;95192.22;;;7.29;48.00
40205;BME280;26963;42.666;23.366;2023-02-21T05:20:50;95124.31;;;6.85;47.92
40205;BME280;26963;42.666;23.366;2023-02-21T05:23:17;95159.47;;;7.08;48.01
40205;BME280;26963;42.666;23.366;2023-02-21T05:26:12;95173.06;;;7.17;47.77
40205;BME280;26963;42.666;23.366;2023-02-21T05:28:38;95015.16;;;6.08;47.81
40205;BME280;26963;42.666;23.366;2023-02-21T05:31:05;95196.47;;;7.25;47.45
40205;BME280;26963;42.666;23.366;2023-02-21T05:33:30;94964.31;;;5.79;47.77
40205;BME280;26963;42.666;23.366;2023-02-21T05:35:57;95171.44;;;7.06;47.73
40205;BME280;26963;42.666;23.366;2023-02-21T05:38:23;95191.94;;;7.10;47.51
40205;BME280;26963;42.666;23.366;2023-02-21T05:40:49;95136.28;;;6.78;47.89
40205;BME280;26963;42.666;23.366;2023-02-21T05:43:15;95197.78;;;7.12;47.68
40205;BME280;26963;42.666;23.366;2023-02-21T05:45:40;95194.06;;;7.13;47.63
40205;BME280;26963;42.666;23.366;2023-02-21T05:48:06;95157.59;;;6.93;47.27
40205;BME280;26963;42.666;23.366;2023-02-21T05:50:32;95194.84;;;7.14;47.10
40205;BME280;26963;42.666;23.366;2023-02-21T05:52:58;95217.50;;;7.32;47.26
40205;BME280;26963;42.666;23.366;2023-02-21T05:55:24;95201.28;;;7.28;47.22
40205;BME280;26963;42.666;23.366;2023-02-21T05:57:50;95208.19;;;7.29;47.06
40205;BME280;26963;42.666;23.366;2023-02-21T06:00:21;95221.53;;;7.45;47.03
40205;BME280;26963;42.666;23.366;2023-02-21T06:02:49;95215.94;;;7.46;47.15
40205;BME280;26963;42.666;23.366;2023-02-21T06:05:15;95197.03;;;7.43;47.41
40205;BME280;26963;42.666;23.366;2023-02-21T06:07:41;95226.59;;;7.67;47.33
40205;BME280;26963;42.666;23.366;2023-02-21T06:10:07;95214.59;;;7.80;46.68
40205;BME280;26963;42.666;23.366;2023-02-21T06:12:33;95227.41;;;7.93;46.90
40205;BME280;26963;42.666;23.366;2023-02-21T06:14:58;95231.66;;;7.99;46.33
40205;BME280;26963;42.666;23.366;2023-02-21T06:17:24;95230.03;;;8.09;45.77
40205;BME280;26963;42.666;23.366;2023-02-21T06:19:49;95237.75;;;8.21;45.75
40205;BME280;26963;42.666;23.366;2023-02-21T06:22:15;95237.50;;;8.27;45.88
40205;BME280;26963;42.666;23.366;2023-02-21T06:24:42;95234.00;;;8.32;45.50
40205;BME280;26963;42.666;23.366;2023-02-21T06:27:08;95142.69;;;7.80;45.37
40205;BME280;26963;42.666;23.366;2023-02-21T06:29:33;95223.34;;;8.27;45.26
40205;BME280;26963;42.666;23.366;2023-02-21T06:32:00;95202.84;;;8.22;45.24
40205;BME280;26963;42.666;23.366;2023-02-21T06:34:26;95217.75;;;8.39;45.14
40205;BME280;26963;42.666;23.366;2023-02-21T06:36:53;95218.00;;;8.47;45.13
40205;BME280;26963;42.666;23.366;2023-02-21T06:39:22;95232.09;;;8.58;45.12
40205;BME280;26963;42.666;23.366;2023-02-21T06:41:49;95234.97;;;8.77;44.97
40205;BME280;26963;42.666;23.366;2023-02-21T06:44:15;95244.50;;;8.94;44.75
40205;BME280;26963;42.666;23.366;2023-02-21T06:46:41;95206.16;;;8.79;44.10
40205;BME280;26963;42.666;23.366;2023-02-21T06:49:07;95236.94;;;9.17;43.72
40205;BME280;26963;42.666;23.366;2023-02-21T06:51:34;95243.78;;;9.33;43.31
40205;BME280;26963;42.666;23.366;2023-02-21T06:54:00;95241.84;;;9.44;43.42
40205;BME280;26963;42.666;23.366;2023-02-21T06:56:26;95165.66;;;9.12;43.07
40205;BME280;26963;42.666;23.366;2023-02-21T06:58:52;95232.63;;;9.66;42.68
40205;BME280;26963;42.666;23.366;2023-02-21T07:01:17;95200.00;;;9.69;42.03
40205;BME280;26963;42.666;23.366;2023-02-21T07:03:43;95232.66;;;10.24;41.83
40205;BME280;26963;42.666;23.366;2023-02-21T07:06:10;95237.56;;;10.71;40.67
40205;BME280;26963;42.666;23.366;2023-02-21T07:08:35;95210.34;;;11.07;39.76
40205;BME280;26963;42.666;23.366;2023-02-21T07:11:01;95232.69;;;11.59;38.80
40205;BME280;26963;42.666;23.366;2023-02-21T07:13:27;95234.06;;;12.09;37.76
40205;BME280;26963;42.666;23.366;2023-02-21T07:15:52;95227.16;;;12.36;36.66
40205;BME280;26963;42.666;23.366;2023-02-21T07:18:18;95169.53;;;12.33;36.08
40205;BME280;26963;42.666;23.366;2023-02-21T07:20:43;95229.78;;;12.97;35.49
40205;BME280;26963;42.666;23.366;2023-02-21T07:23:09;95224.09;;;13.12;35.18
40205;BME280;26963;42.666;23.366;2023-02-21T07:25:35;95212.44;;;13.17;34.77
40205;BME280;26963;42.666;23.366;2023-02-21T07:28:00;95210.59;;;13.54;34.35
40205;BME280;26963;42.666;23.366;2023-02-21T07:30:28;95193.06;;;13.57;33.91
40205;BME280;26963;42.666;23.366;2023-02-21T07:32:53;95175.16;;;13.52;33.88
40205;BME280;26963;42.666;23.366;2023-02-21T07:35:19;95208.66;;;13.91;33.40
40205;BME280;26963;42.666;23.366;2023-02-21T07:37:44;95200.28;;;13.93;33.61
40205;BME280;26963;42.666;23.366;2023-02-21T07:40:10;95162.19;;;14.31;32.50
40205;BME280;26963;42.666;23.366;2023-02-21T07:42:35;95193.06;;;15.14;31.85
40205;BME280;26963;42.666;23.366;2023-02-21T07:45:01;95194.03;;;15.27;31.41
40205;BME280;26963;42.666;23.366;2023-02-21T07:47:27;95197.19;;;15.38;31.45
40205;BME280;26963;42.666;23.366;2023-02-21T07:49:53;95154.06;;;15.20;31.02
40205;BME280;26963;42.666;23.366;2023-02-21T07:52:20;95134.22;;;15.60;30.48
40205;BME280;26963;42.666;23.366;2023-02-21T07:54:46;95181.44;;;16.19;29.58
40205;BME280;26963;42.666;23.366;2023-02-21T07:57:12;95176.72;;;15.80;30.20
40205;BME280;26963;42.666;23.366;2023-02-21T07:59:38;95169.13;;;15.82;30.30
40205;BME280;26963;42.666;23.366;2023-02-21T08:02:04;95181.03;;;15.90;30.17
40205;BME280;26963;42.666;23.366;2023-02-21T08:04:29;95152.28;;;15.68;30.14
40205;BME280;26963;42.666;23.366;2023-02-21T08:07:02;95177.69;;;15.67;30.58
40205;BME280;26963;42.666;23.366;2023-02-21T08:09:28;95166.91;;;15.32;31.26
40205;BME280;26963;42.666;23.366;2023-02-21T08:11:53;95181.97;;;15.24;31.40
40205;BME280;26963;42.666;23.366;2023-02-21T08:14:19;95101.63;;;14.60;31.47
40205;BME280;26963;42.666;23.366;2023-02-21T08:16:45;95153.06;;;14.81;31.81
40205;BME280;26963;42.666;23.366;2023-02-21T08:19:10;95161.13;;;14.81;32.13
40205;BME280;26963;42.666;23.366;2023-02-21T08:21:36;95178.41;;;14.89;31.94
40205;BME280;26963;42.666;23.366;2023-02-21T08:24:01;95182.34;;;14.82;31.87
40205;BME280;26963;42.666;23.366;2023-02-21T08:26:27;95167.09;;;14.69;32.13
40205;BME280;26963;42.666;23.366;2023-02-21T08:28:52;95185.06;;;14.82;32.12
40205;BME280;26963;42.666;23.366;2023-02-21T08:31:18;95166.94;;;14.65;32.23
40205;BME280;26963;42.666;23.366;2023-02-21T08:33:44;95124.91;;;14.56;32.28
40205;BME280;26963;42.666;23.366;2023-02-21T08:36:10;95157.44;;;14.77;32.04
40205;BME280;26963;42.666;23.366;2023-02-21T08:38:36;95170.94;;;14.86;32.27
40205;BME280;26963;42.666;23.366;2023-02-21T08:41:02;95161.75;;;14.87;32.25
40205;BME280;26963;42.666;23.366;2023-02-21T08:43:30;95049.44;;;14.21;32.31
40205;BME280;26963;42.666;23.366;2023-02-21T08:45:56;95109.06;;;14.63;32.00
40205;BME280;26963;42.666;23.366;2023-02-21T08:48:22;95119.06;;;14.62;32.28
40205;BME280;26963;42.666;23.366;2023-02-21T08:50:47;95172.72;;;14.99;32.16
40205;BME280;26963;42.666;23.366;2023-02-21T08:53:13;95141.47;;;14.80;32.02
40205;BME280;26963;42.666;23.366;2023-02-21T08:55:39;95143.22;;;14.76;32.24
40205;BME280;26963;42.666;23.366;2023-02-21T08:58:05;95098.88;;;14.42;32.29
40205;BME280;26963;42.666;23.366;2023-02-21T09:00:30;95159.53;;;14.80;32.30
40205;BME280;26963;42.666;23.366;2023-02-21T09:02:57;95105.88;;;14.43;32.16
40205;BME280;26963;42.666;23.366;2023-02-21T09:05:26;95165.25;;;14.78;32.56
40205;BME280;26963;42.666;23.366;2023-02-21T09:07:54;95144.59;;;14.65;32.61
40205;BME280;26963;42.666;23.366;2023-02-21T09:10:27;95136.44;;;14.47;33.24
40205;BME280;26963;42.666;23.366;2023-02-21T09:12:53;95146.63;;;14.59;32.76
40205;BME280;26963;42.666;23.366;2023-02-21T09:15:19;95135.03;;;14.59;32.50
40205;BME280;26963;42.666;23.366;2023-02-21T09:17:45;95115.03;;;14.42;32.71
40205;BME280;26963;42.666;23.366;2023-02-21T09:20:15;94932.59;;;13.24;32.71
40205;BME280;26963;42.666;23.366;2023-02-21T09:22:44;95122.84;;;14.61;33.02
40205;BME280;26963;42.666;23.366;2023-02-21T09:25:12;95120.44;;;14.91;32.64
40205;BME280;26963;42.666;23.366;2023-02-21T09:27:39;95135.34;;;14.97;32.20
40205;BME280;26963;42.666;23.366;2023-02-21T09:30:07;95136.63;;;15.18;31.94
40205;BME280;26963;42.666;23.366;2023-02-21T09:32:33;95107.91;;;15.04;31.76
40205;BME280;26963;42.666;23.366;2023-02-21T09:34:59;95131.06;;;15.40;31.60
40205;BME280;26963;42.666;23.366;2023-02-21T09:37:25;95110.63;;;15.48;31.77
40205;BME280;26963;42.666;23.366;2023-02-21T09:39:51;95054.59;;;15.54;31.26
40205;BME280;26963;42.666;23.366;2023-02-21T09:42:17;95082.75;;;16.00;30.85
40205;BME280;26963;42.666;23.366;2023-02-21T09:44:44;95111.78;;;16.51;30.31
40205;BME280;26963;42.666;23.366;2023-02-21T09:47:19;95081.78;;;16.43;29.70
40205;BME280;26963;42.666;23.366;2023-02-21T09:49:51;95034.13;;;16.18;29.29
40205;BME280;26963;42.666;23.366;2023-02-21T09:52:31;95101.09;;;16.84;29.55
40205;BME280;26963;42.666;23.366;2023-02-21T09:54:59;95102.47;;;16.90;28.94
40205;BME280;26963;42.666;23.366;2023-02-21T09:57:26;95059.59;;;16.59;28.96
40205;BME280;26963;42.666;23.366;2023-02-21T09:59:51;95095.78;;;16.97;29.10
40205;BME280;26963;42.666;23.366;2023-02-21T10:05:40;95089.44;;;17.35;28.97
40205;BME280;26963;42.666;23.366;2023-02-21T10:08:29;95080.22;;;17.69;28.69
40205;BME280;26963;42.666;23.366;2023-02-21T10:16:55;95069.50;;;18.31;27.01
40205;BME280;26963;42.666;23.366;2023-02-21T10:19:30;95076.63;;;18.61;26.31
40205;BME280;26963;42.666;23.366;2023-02-21T10:22:00;95051.22;;;18.53;26.29
40205;BME280;26963;42.666;23.366;2023-02-21T10:24:27;95015.13;;;18.12;26.12
40205;BME280;26963;42.666;23.366;2023-02-21T10:27:00;95025.03;;;18.07;26.46
40205;BME280;26963;42.666;23.366;2023-02-21T10:32:13;94967.34;;;17.57;26.42
40205;BME280;26963;42.666;23.366;2023-02-21T10:34:39;95046.47;;;18.13;26.27
40205;BME280;26963;42.666;23.366;2023-02-21T10:42:58;94970.66;;;18.13;25.88
40205;BME280;26963;42.666;23.366;2023-02-21T10:45:31;95015.53;;;18.63;25.96
40205;BME280;26963;42.666;23.366;2023-02-21T10:48:06;95010.09;;;18.63;25.70
40205;BME280;26963;42.666;23.366;2023-02-21T10:53:30;94954.63;;;18.32;25.77
40205;BME280;26963;42.666;23.366;2023-02-21T10:56:17;94998.91;;;18.77;25.50
40205;BME280;26963;42.666;23.366;2023-02-21T10:58:45;94962.72;;;18.57;25.10
40205;BME280;26963;42.666;23.366;2023-02-21T11:01:16;94987.41;;;19.09;24.88
40205;BME280;26963;42.666;23.366;2023-02-21T11:03:44;94970.47;;;19.12;23.62
40205;BME280;26963;42.666;23.366;2023-02-21T11:08:49;94939.28;;;19.34;20.77
40205;BME280;26963;42.666;23.366;2023-02-21T11:11:15;94913.59;;;18.99;20.50
40205;BME280;26963;42.666;23.366;2023-02-21T11:13:41;94943.13;;;19.33;20.57
40205;BME280;26963;42.666;23.366;2023-02-21T11:16:18;94948.13;;;19.47;20.78
40205;BME280;26963;42.666;23.366;2023-02-21T11:18:44;94950.75;;;19.59;20.45
40205;BME280;26963;42.666;23.366;2023-02-21T11:21:15;94882.66;;;19.32;21.19
40205;BME280;26963;42.666;23.366;2023-02-21T11:24:01;94923.22;;;19.89;20.54
40205;BME280;26963;42.666;23.366;2023-02-21T11:26:30;94882.13;;;19.75;19.96
40205;BME280;26963;42.666;23.366;2023-02-21T11:29:11;94876.84;;;19.82;19.95
40205;BME280;26963;42.666;23.366;2023-02-21T11:31:38;94925.56;;;20.07;20.01
40205;BME280;26963;42.666;23.366;2023-02-21T11:34:05;94877.56;;;19.79;19.92
40205;BME280;26963;42.666;23.366;2023-02-21T11:36:38;94908.47;;;20.06;19.76
40205;BME280;26963;42.666;23.366;2023-02-21T11:39:16;94904.88;;;20.02;20.03
40205;BME280;26963;42.666;23.366;2023-02-21T11:44:38;94898.22;;;19.99;19.88
40205;BME280;26963;42.666;23.366;2023-02-21T11:47:20;94850.38;;;19.43;20.08
40205;BME280;26963;42.666;23.366;2023-02-21T11:52:51;94877.75;;;19.86;20.30
40205;BME280;26963;42.666;23.366;2023-02-21T11:55:22;94691.94;;;18.64;20.60
40205;BME280;26963;42.666;23.366;2023-02-21T12:01:02;94871.03;;;19.64;20.46
40205;BME280;26963;42.666;23.366;2023-02-21T12:12:03;94848.50;;;19.63;21.46
40205;BME280;26963;42.666;23.366;2023-02-21T12:25:33;94837.53;;;19.76;21.18
40205;BME280;26963;42.666;23.366;2023-02-21T12:37:18;94831.91;;;19.49;21.21
40205;BME280;26963;42.666;23.366;2023-02-21T12:47:22;94818.38;;;19.68;21.50
40205;BME280;26963;42.666;23.366;2023-02-21T12:49:57;94830.25;;;19.80;21.67
40205;BME280;26963;42.666;23.366;2023-02-21T13:00:39;94820.19;;;19.96;21.84
40205;BME280;26963;42.666;23.366;2023-02-21T13:06:11;94810.63;;;20.02;21.53
40205;BME280;26963;42.666;23.366;2023-02-21T13:08:55;94810.13;;;19.97;21.67
40205;BME280;26963;42.666;23.366;2023-02-21T13:11:44;94756.00;;;19.52;21.81
40205;BME280;26963;42.666;23.366;2023-02-21T13:14:17;94807.88;;;19.83;21.72
40205;BME280;26963;42.666;23.366;2023-02-21T13:16:43;94709.00;;;19.13;22.00
40205;BME280;26963;42.666;23.366;2023-02-21T13:19:10;94783.44;;;19.67;21.81
40205;BME280;26963;42.666;23.366;2023-02-21T13:29:40;94792.78;;;19.50;21.49
40205;BME280;26963;42.666;23.366;2023-02-21T13:32:12;94660.69;;;18.51;22.37
40205;BME280;26963;42.666;23.366;2023-02-21T13:37:25;94780.44;;;19.36;22.03
40205;BME280;26963;42.666;23.366;2023-02-21T13:39:58;94757.38;;;19.11;21.65
40205;BME280;26963;42.666;23.366;2023-02-21T13:42:33;94748.97;;;19.00;22.32
40205;BME280;26963;42.666;23.366;2023-02-21T13:45:20;94774.97;;;19.17;22.17
40205;BME280;26963;42.666;23.366;2023-02-21T13:53:11;94772.06;;;18.94;22.69
40205;BME280;26963;42.666;23.366;2023-02-21T13:58:38;94764.84;;;18.69;22.79
40205;BME280;26963;42.666;23.366;2023-02-21T14:03:54;94764.25;;;18.60;22.77
40205;BME280;26963;42.666;23.366;2023-02-21T14:06:34;94695.47;;;18.04;22.76
40205;BME280;26963;42.666;23.366;2023-02-21T14:09:07;94765.09;;;18.48;23.00
40205;BME280;26963;42.666;23.366;2023-02-21T14:11:37;94703.78;;;18.12;23.24
40205;BME280;26963;42.666;23.366;2023-02-21T14:14:29;94685.22;;;17.98;22.92
40205;BME280;26963;42.666;23.366;2023-02-21T14:17:08;94689.41;;;17.95;23.12
40205;BME280;26963;42.666;23.366;2023-02-21T14:19:41;94748.56;;;18.37;23.16
40205;BME280;26963;42.666;23.366;2023-02-21T14:24:44;94756.44;;;18.42;23.14
40205;BME280;26963;42.666;23.366;2023-02-21T14:32:46;94747.63;;;18.17;22.33
40205;BME280;26963;42.666;23.366;2023-02-21T14:35:34;94758.56;;;18.21;22.61
40205;BME280;26963;42.666;23.366;2023-02-21T14:38:23;94731.53;;;18.08;22.81
40205;BME280;26963;42.666;23.366;2023-02-21T14:41:15;94748.84;;;18.20;22.69
40205;BME280;26963;42.666;23.366;2023-02-21T15:05:35;94748.31;;;18.14;22.18
40205;BME280;26963;42.666;23.366;2023-02-21T15:08:18;94745.53;;;18.11;22.37
40205;BME280;26963;42.666;23.366;2023-02-21T15:10:47;94740.78;;;18.07;22.57
40205;BME280;26963;42.666;23.366;2023-02-21T15:13:28;94726.59;;;17.98;22.79
40205;BME280;26963;42.666;23.366;2023-02-21T15:15:58;94702.09;;;17.79;22.96
40205;BME280;26963;42.666;23.366;2023-02-21T15:18:28;94748.47;;;17.93;22.58
40205;BME280;26963;42.666;23.366;2023-02-21T15:21:03;94732.59;;;17.91;22.98
40205;BME280;26963;42.666;23.366;2023-02-21T15:23:30;94745.31;;;18.03;22.94
40205;BME280;26963;42.666;23.366;2023-02-21T15:25:58;94721.59;;;17.72;22.85
40205;BME280;26963;42.666;23.366;2023-02-21T15:28:31;94750.72;;;17.91;23.36
40205;BME280;26963;42.666;23.366;2023-02-21T15:31:06;94764.41;;;17.95;23.19
40205;BME280;26963;42.666;23.366;2023-02-21T15:33:37;94768.13;;;17.90;23.18
40205;BME280;26963;42.666;23.366;2023-02-21T15:36:22;94761.69;;;17.82;23.32
40205;BME280;26963;42.666;23.366;2023-02-21T15:38:52;94753.63;;;17.70;23.58
40205;BME280;26963;42.666;23.366;2023-02-21T15:41:32;94748.59;;;17.56;23.24
40205;BME280;26963;42.666;23.366;2023-02-21T15:46:42;94768.19;;;17.53;23.58
40205;BME280;26963;42.666;23.366;2023-02-21T15:49:20;94764.94;;;17.47;23.83
40205;BME280;26963;42.666;23.366;2023-02-21T15:51:47;94722.50;;;17.10;23.73
40205;BME280;26963;42.666;23.366;2023-02-21T15:56:41;94778.81;;;17.33;23.99
40205;BME280;26963;42.666;23.366;2023-02-21T15:59:10;94772.41;;;17.25;23.79
40205;BME280;26963;42.666;23.366;2023-02-21T16:01:35;94770.69;;;17.21;24.08
40205;BME280;26963;42.666;23.366;2023-02-21T16:04:34;94769.00;;;17.16;24.61
40205;BME280;26963;42.666;23.366;2023-02-21T16:07:00;94725.16;;;16.73;24.02